createdAt,value
2022-09-30T00:00:27.660Z,8.50
2022-09-30T00:01:29.388Z,8.70
2022-09-30T00:02:32.372Z,9.10
2022-09-30T00:03:34.015Z,9.23
2022-09-30T00:04:36.557Z,10.10
2022-09-30T00:05:38.128Z,9.63
2022-09-30T00:06:40.731Z,9.65
2022-09-30T00:07:42.315Z,9.60
2022-09-30T00:08:44.808Z,8.60
2022-09-30T00:09:47.949Z,9.13
2022-09-30T00:10:59.750Z,8.55
2022-09-30T00:12:01.853Z,9.00
2022-09-30T00:13:05.700Z,9.13
2022-09-30T00:14:09.574Z,10.30
2022-09-30T00:15:11.215Z,8.90
2022-09-30T00:16:15.258Z,9.18
2022-09-30T00:17:16.943Z,8.40
2022-09-30T00:18:19.475Z,8.90
2022-09-30T00:19:21.116Z,8.68
2022-09-30T00:20:23.762Z,9.00
2022-09-30T00:21:26.655Z,9.90
2022-09-30T00:22:29.236Z,9.35
2022-09-30T00:23:30.772Z,8.80
2022-09-30T00:24:33.269Z,8.35
2022-09-30T00:25:34.829Z,9.90
2022-09-30T00:26:37.739Z,9.82
2022-09-30T00:27:39.724Z,9.75
2022-09-30T00:28:44.731Z,7.88
2022-09-30T00:29:46.600Z,8.32
2022-09-30T00:30:49.134Z,8.98
2022-09-30T00:31:50.897Z,8.95
2022-09-30T00:32:53.464Z,8.45
2022-09-30T00:34:07.545Z,9.50
2022-09-30T00:35:10.401Z,8.57
2022-09-30T00:36:12.020Z,9.60
2022-09-30T00:37:16.667Z,9.45
2022-09-30T00:38:18.229Z,9.00
2022-09-30T00:39:23.816Z,8.82
2022-09-30T00:40:26.148Z,9.13
2022-09-30T00:41:28.754Z,9.65
2022-09-30T00:42:30.689Z,9.45
2022-09-30T00:43:51.289Z,9.25
2022-09-30T00:44:54.984Z,9.60
2022-09-30T00:46:00.512Z,8.65
2022-09-30T00:47:02.425Z,9.55
2022-09-30T00:48:09.563Z,8.60
2022-09-30T00:49:15.857Z,9.23
2022-09-30T00:50:30.600Z,9.98
2022-09-30T00:51:36.758Z,9.00
2022-09-30T00:52:39.724Z,9.65
2022-09-30T00:53:51.991Z,9.50
2022-09-30T00:54:55.250Z,8.68
2022-09-30T00:56:01.024Z,8.80
2022-09-30T00:57:04.424Z,9.40
2022-09-30T00:58:10.551Z,9.32
2022-09-30T00:59:18.253Z,9.10
2022-09-30T01:00:20.888Z,9.02
2022-09-30T01:01:24.087Z,8.93
2022-09-30T01:02:26.659Z,9.63
2022-09-30T01:03:31.035Z,10.10
2022-09-30T01:04:35.892Z,10.07
2022-09-30T01:05:37.642Z,8.23
2022-09-30T01:06:42.251Z,9.80
2022-09-30T01:07:47.047Z,9.32
2022-09-30T01:08:50.260Z,9.50
2022-09-30T01:09:52.380Z,9.30
2022-09-30T01:10:54.917Z,9.18
2022-09-30T01:11:56.761Z,8.50
2022-09-30T01:13:00.420Z,9.05
2022-09-30T01:14:17.571Z,9.57
2022-09-30T01:15:30.243Z,9.63
2022-09-30T01:16:55.615Z,9.27
2022-09-30T01:18:06.256Z,9.52
2022-09-30T01:19:27.460Z,9.85
2022-09-30T01:21:08.067Z,8.90
2022-09-30T01:22:20.924Z,9.98
2022-09-30T01:23:52.546Z,9.57
2022-09-30T01:25:31.227Z,9.90
2022-09-30T01:26:53.336Z,9.57
2022-09-30T01:28:29.225Z,9.90
2022-09-30T01:29:57.973Z,9.45
2022-09-30T01:31:22.166Z,10.48
2022-09-30T01:32:33.822Z,8.55
2022-09-30T01:33:46.052Z,10.20
2022-09-30T01:34:55.708Z,9.60
2022-09-30T01:36:25.219Z,10.07
2022-09-30T01:37:38.110Z,9.93
2022-09-30T01:38:48.549Z,10.20
2022-09-30T01:40:04.227Z,9.57
2022-09-30T01:41:10.685Z,9.50
2022-09-30T01:42:19.688Z,9.75
2022-09-30T01:43:29.693Z,9.88
2022-09-30T01:44:38.913Z,10.30
2022-09-30T01:45:44.846Z,10.48
2022-09-30T01:46:56.469Z,10.05
2022-09-30T01:48:02.211Z,9.52
2022-09-30T01:49:12.377Z,10.00
2022-09-30T01:50:20.144Z,9.43
2022-09-30T01:51:33.793Z,9.30
2022-09-30T01:52:41.298Z,9.20
2022-09-30T01:53:48.162Z,9.63
2022-09-30T01:54:55.133Z,9.68
2022-09-30T01:56:03.744Z,11.40
2022-09-30T01:57:11.532Z,10.25
2022-09-30T01:58:20.112Z,9.95
2022-09-30T01:59:26.871Z,10.10
2022-09-30T02:00:29.582Z,9.57
2022-09-30T02:01:39.157Z,10.63
2022-09-30T02:02:49.983Z,11.40
2022-09-30T02:03:55.711Z,9.98
2022-09-30T02:05:02.783Z,10.15
2022-09-30T02:06:08.561Z,10.20
2022-09-30T02:07:16.828Z,9.90
2022-09-30T02:08:24.050Z,9.55
2022-09-30T02:09:30.435Z,10.25
2022-09-30T02:10:35.516Z,10.57
2022-09-30T02:11:39.553Z,9.65
2022-09-30T02:12:47.998Z,9.95
2022-09-30T02:13:54.794Z,9.32
2022-09-30T02:15:02.163Z,9.63
2022-09-30T02:16:12.925Z,10.10
2022-09-30T02:17:21.118Z,10.23
2022-09-30T02:18:29.623Z,10.05
2022-09-30T02:19:36.959Z,10.52
2022-09-30T02:20:44.079Z,9.30
2022-09-30T02:21:51.598Z,9.10
2022-09-30T02:23:01.636Z,9.70
2022-09-30T02:24:09.798Z,10.05
2022-09-30T02:25:20.106Z,8.73
2022-09-30T02:26:27.094Z,9.00
2022-09-30T02:27:41.495Z,9.73
2022-09-30T02:28:49.045Z,8.85
2022-09-30T02:29:56.446Z,10.30
2022-09-30T02:31:02.400Z,10.20
2022-09-30T02:32:07.652Z,9.90
2022-09-30T02:33:14.539Z,10.10
2022-09-30T02:34:20.965Z,9.27
2022-09-30T02:35:28.888Z,9.82
2022-09-30T02:36:34.894Z,10.05
2022-09-30T02:37:42.610Z,9.70
2022-09-30T02:38:48.925Z,10.20
2022-09-30T02:39:55.950Z,9.05
2022-09-30T02:41:02.279Z,9.43
2022-09-30T02:42:12.713Z,9.35
2022-09-30T02:43:17.708Z,9.45
2022-09-30T02:44:20.342Z,8.70
2022-09-30T02:45:25.004Z,9.13
2022-09-30T02:46:35.075Z,8.85
2022-09-30T02:47:49.141Z,8.75
2022-09-30T02:49:01.584Z,9.27
2022-09-30T02:50:13.249Z,8.73
2022-09-30T02:51:21.066Z,8.50
2022-09-30T02:52:27.774Z,8.90
2022-09-30T02:53:36.483Z,8.73
2022-09-30T02:54:52.410Z,9.32
2022-09-30T02:56:09.530Z,8.77
2022-09-30T02:57:20.429Z,8.48
2022-09-30T02:58:26.181Z,8.65
2022-09-30T02:59:29.034Z,8.48
2022-09-30T03:00:30.800Z,8.50
2022-09-30T03:01:33.500Z,9.05
2022-09-30T03:02:35.503Z,8.23
2022-09-30T03:03:41.564Z,8.57
2022-09-30T03:04:45.773Z,9.88
2022-09-30T03:05:51.638Z,8.63
2022-09-30T03:06:54.232Z,9.02
2022-09-30T03:07:57.465Z,9.98
2022-09-30T03:08:59.048Z,8.82
2022-09-30T03:10:01.550Z,9.32
2022-09-30T03:11:05.113Z,8.70
2022-09-30T03:12:16.736Z,9.40
2022-09-30T03:13:35.222Z,8.20
2022-09-30T03:14:51.552Z,8.70
2022-09-30T03:16:09.733Z,8.35
2022-09-30T03:17:30.572Z,8.90
2022-09-30T03:18:54.046Z,8.50
2022-09-30T03:20:14.516Z,9.15
2022-09-30T03:21:33.432Z,8.85
2022-09-30T03:22:51.227Z,7.95
2022-09-30T03:24:13.473Z,8.77
2022-09-30T03:25:29.348Z,7.82
2022-09-30T03:26:41.087Z,8.45
2022-09-30T03:27:55.388Z,9.10
2022-09-30T03:29:07.147Z,8.65
2022-09-30T03:30:16.015Z,8.82
2022-09-30T03:31:25.787Z,9.55
2022-09-30T03:32:42.503Z,9.00
2022-09-30T03:33:50.338Z,8.68
2022-09-30T03:35:03.275Z,8.75
2022-09-30T03:36:09.246Z,8.68
2022-09-30T03:37:20.826Z,8.57
2022-09-30T03:38:34.768Z,8.52
2022-09-30T03:39:54.963Z,10.20
2022-09-30T03:41:04.012Z,8.90
2022-09-30T03:42:12.130Z,9.10
2022-09-30T03:43:21.285Z,9.60
2022-09-30T03:44:30.782Z,9.07
2022-09-30T03:45:46.539Z,9.50
2022-09-30T03:46:52.544Z,8.02
2022-09-30T03:47:58.614Z,10.45
2022-09-30T03:49:04.994Z,8.75
2022-09-30T03:50:09.720Z,9.57
2022-09-30T03:51:12.974Z,8.88
2022-09-30T03:52:16.978Z,9.00
2022-09-30T03:53:19.784Z,8.75
2022-09-30T03:54:22.805Z,9.02
2022-09-30T03:55:26.307Z,8.35
2022-09-30T03:56:29.501Z,9.55
2022-09-30T03:57:32.435Z,9.77
2022-09-30T03:58:34.735Z,9.35
2022-09-30T03:59:37.231Z,8.77
2022-09-30T04:00:42.690Z,8.45
2022-09-30T04:01:45.267Z,9.98
2022-09-30T04:02:46.934Z,9.45
2022-09-30T04:03:52.180Z,8.75
2022-09-30T04:04:53.705Z,9.30
2022-09-30T04:05:56.209Z,8.90
2022-09-30T04:06:57.741Z,8.90
2022-09-30T04:08:01.933Z,10.07
2022-09-30T04:09:03.714Z,8.80
2022-09-30T04:10:06.949Z,9.25
2022-09-30T04:11:08.538Z,9.43
2022-09-30T04:12:11.603Z,9.48
2022-09-30T04:13:13.160Z,9.23
2022-09-30T04:14:15.743Z,8.75
2022-09-30T04:15:17.282Z,9.07
2022-09-30T04:16:19.959Z,9.02
2022-09-30T04:17:22.360Z,8.60
2022-09-30T04:18:24.885Z,9.30
2022-09-30T04:19:26.495Z,9.45
2022-09-30T04:20:30.709Z,8.48
2022-09-30T04:21:32.390Z,8.75
2022-09-30T04:22:34.970Z,8.52
2022-09-30T04:23:38.610Z,8.50
2022-09-30T04:24:41.114Z,8.93
2022-09-30T04:25:42.652Z,8.55
2022-09-30T04:26:45.113Z,9.00
2022-09-30T04:27:46.616Z,8.85
2022-09-30T04:28:49.073Z,9.25
2022-09-30T04:29:50.623Z,9.68
2022-09-30T04:30:53.265Z,8.38
2022-09-30T04:31:54.926Z,9.25
2022-09-30T04:32:57.752Z,9.05
2022-09-30T04:33:59.240Z,8.85
2022-09-30T04:35:01.715Z,9.10
2022-09-30T04:36:04.568Z,9.32
2022-09-30T04:37:10.739Z,8.63
2022-09-30T04:38:12.547Z,8.80
2022-09-30T04:39:16.375Z,9.95
2022-09-30T04:40:17.936Z,9.40
2022-09-30T04:41:20.943Z,10.00
2022-09-30T04:42:22.468Z,10.70
2022-09-30T04:43:26.191Z,8.82
2022-09-30T04:44:28.677Z,9.23
2022-09-30T04:45:30.277Z,9.52
2022-09-30T04:46:33.653Z,8.55
2022-09-30T04:47:35.331Z,9.48
2022-09-30T04:48:37.805Z,9.02
2022-09-30T04:49:39.337Z,9.10
2022-09-30T04:50:42.171Z,9.00
2022-09-30T04:51:45.989Z,9.13
2022-09-30T04:52:48.543Z,8.95
2022-09-30T04:53:50.329Z,9.70
2022-09-30T04:54:55.001Z,8.85
2022-09-30T04:56:00.168Z,8.73
2022-09-30T04:57:02.679Z,8.65
2022-09-30T04:58:04.364Z,8.50
2022-09-30T04:59:07.215Z,9.50
2022-09-30T05:00:11.464Z,8.60
2022-09-30T05:01:17.553Z,9.35
2022-09-30T05:02:20.145Z,7.55
2022-09-30T05:03:21.736Z,7.78
2022-09-30T05:04:24.279Z,8.85
2022-09-30T05:05:25.923Z,10.30
2022-09-30T05:06:28.488Z,8.35
2022-09-30T05:07:31.122Z,8.55
2022-09-30T05:08:34.696Z,7.65
2022-09-30T05:09:36.456Z,7.80
2022-09-30T05:10:40.312Z,8.07
2022-09-30T05:11:42.555Z,8.00
2022-09-30T05:12:45.110Z,8.52
2022-09-30T05:13:47.332Z,8.27
2022-09-30T05:14:49.787Z,9.07
2022-09-30T05:15:51.897Z,9.48
2022-09-30T05:16:54.460Z,8.75
2022-09-30T05:17:56.001Z,8.65
2022-09-30T05:18:58.495Z,9.05
2022-09-30T05:20:00.534Z,8.05
2022-09-30T05:21:04.014Z,7.80
2022-09-30T05:22:06.580Z,9.35
2022-09-30T05:23:08.174Z,8.68
2022-09-30T05:24:10.904Z,8.88
2022-09-30T05:25:12.425Z,9.52
2022-09-30T05:26:16.693Z,10.18
2022-09-30T05:27:18.499Z,8.38
2022-09-30T05:28:21.096Z,9.10
2022-09-30T05:29:22.717Z,9.40
2022-09-30T05:30:25.263Z,9.30
2022-09-30T05:31:27.004Z,9.45
2022-09-30T05:32:31.939Z,8.20
2022-09-30T05:33:35.631Z,8.70
2022-09-30T05:34:38.908Z,7.85
2022-09-30T05:35:41.766Z,8.32
2022-09-30T05:36:44.691Z,8.60
2022-09-30T05:37:46.261Z,8.23
2022-09-30T05:38:51.794Z,7.95
2022-09-30T05:39:54.932Z,7.97
2022-09-30T05:40:57.745Z,7.50
2022-09-30T05:42:00.972Z,8.05
2022-09-30T05:43:03.489Z,8.43
2022-09-30T05:44:05.304Z,8.15
2022-09-30T05:45:08.928Z,8.27
2022-09-30T05:46:10.988Z,6.90
2022-09-30T05:47:13.507Z,8.45
2022-09-30T05:48:15.046Z,8.10
2022-09-30T05:49:17.584Z,7.18
2022-09-30T05:50:19.656Z,8.45
2022-09-30T05:51:22.512Z,7.72
2022-09-30T05:52:24.440Z,7.75
2022-09-30T05:53:27.142Z,7.32
2022-09-30T05:54:29.030Z,7.53
2022-09-30T05:55:35.750Z,7.93
2022-09-30T05:56:41.202Z,8.23
2022-09-30T05:57:47.907Z,8.25
2022-09-30T05:58:50.924Z,7.88
2022-09-30T05:59:52.576Z,7.65
2022-09-30T06:00:55.169Z,8.10
2022-09-30T06:01:56.777Z,8.23
2022-09-30T06:02:59.359Z,8.27
2022-09-30T06:04:01.371Z,8.35
2022-09-30T06:05:04.063Z,8.90
2022-09-30T06:06:06.927Z,9.07
2022-09-30T06:07:10.659Z,8.00
2022-09-30T06:08:13.155Z,7.93
2022-09-30T06:09:15.830Z,8.15
2022-09-30T06:10:17.642Z,8.85
2022-09-30T06:11:23.378Z,8.95
2022-09-30T06:12:27.306Z,8.20
2022-09-30T06:13:31.596Z,9.40
2022-09-30T06:14:33.117Z,8.95
2022-09-30T06:15:36.840Z,9.32
2022-09-30T06:16:38.458Z,10.38
2022-09-30T06:17:42.423Z,7.57
2022-09-30T06:18:45.721Z,8.93
2022-09-30T06:19:47.291Z,7.95
2022-09-30T06:20:50.010Z,7.75
2022-09-30T06:21:51.806Z,8.90
2022-09-30T06:22:54.528Z,8.80
2022-09-30T06:23:58.696Z,9.25
2022-09-30T06:25:00.252Z,9.23
2022-09-30T06:26:04.625Z,9.18
2022-09-30T06:27:09.164Z,9.20
2022-09-30T06:28:10.787Z,9.10
2022-09-30T06:29:14.747Z,8.23
2022-09-30T06:30:16.836Z,7.93
2022-09-30T06:31:19.690Z,8.27
2022-09-30T06:32:21.323Z,9.20
2022-09-30T06:33:23.813Z,8.30
2022-09-30T06:34:26.396Z,8.50
2022-09-30T06:35:28.776Z,8.00
2022-09-30T06:36:33.297Z,7.82
2022-09-30T06:37:37.171Z,8.30
2022-09-30T06:38:40.454Z,7.50
2022-09-30T06:39:45.531Z,8.15
2022-09-30T06:40:54.280Z,8.20
2022-09-30T06:41:59.157Z,8.02
2022-09-30T06:43:07.058Z,8.52
2022-09-30T06:44:09.611Z,8.20
2022-09-30T06:45:21.574Z,8.20
2022-09-30T06:46:31.058Z,9.10
2022-09-30T06:47:33.193Z,8.73
2022-09-30T06:48:38.747Z,8.98
2022-09-30T06:49:49.196Z,9.75
2022-09-30T06:51:01.161Z,9.43
2022-09-30T06:52:04.041Z,7.70
2022-09-30T06:53:09.010Z,9.82
2022-09-30T06:54:10.871Z,10.18
2022-09-30T06:55:13.311Z,9.23
2022-09-30T06:56:18.195Z,9.13
2022-09-30T06:57:22.452Z,9.15
2022-09-30T06:58:25.800Z,9.32
2022-09-30T06:59:27.787Z,8.85
2022-09-30T07:00:31.737Z,9.85
2022-09-30T07:01:33.375Z,8.85
2022-09-30T07:02:36.435Z,9.38
2022-09-30T07:03:38.009Z,9.20
2022-09-30T07:04:40.502Z,9.18
2022-09-30T07:05:42.018Z,8.60
2022-09-30T07:06:44.919Z,9.15
2022-09-30T07:07:46.796Z,9.38
2022-09-30T07:08:49.298Z,9.48
2022-09-30T07:09:53.655Z,9.98
2022-09-30T07:10:57.999Z,10.20
2022-09-30T07:12:00.513Z,8.38
2022-09-30T07:13:02.638Z,8.88
2022-09-30T07:14:05.270Z,9.43
2022-09-30T07:15:12.795Z,9.27
2022-09-30T07:16:21.077Z,8.77
2022-09-30T07:17:23.149Z,8.75
2022-09-30T07:18:28.651Z,9.45
2022-09-30T07:19:31.489Z,9.02
2022-09-30T07:20:33.045Z,8.25
2022-09-30T07:21:35.564Z,7.88
2022-09-30T07:22:37.068Z,8.75
2022-09-30T07:23:47.779Z,9.20
2022-09-30T07:24:49.563Z,8.30
2022-09-30T07:25:53.710Z,9.32
2022-09-30T07:26:55.263Z,8.45
2022-09-30T07:27:57.747Z,8.10
2022-09-30T07:29:00.084Z,8.90
2022-09-30T07:30:15.112Z,8.52
2022-09-30T07:31:35.562Z,8.20
2022-09-30T07:32:39.579Z,8.68
2022-09-30T07:33:41.131Z,8.63
2022-09-30T07:34:44.001Z,8.23
2022-09-30T07:35:52.478Z,8.75
2022-09-30T07:36:55.299Z,8.45
2022-09-30T07:37:56.816Z,9.30
2022-09-30T07:39:00.208Z,8.30
2022-09-30T07:40:04.438Z,8.80
2022-09-30T07:41:09.475Z,9.00
2022-09-30T07:42:11.562Z,8.45
2022-09-30T07:43:17.029Z,9.13
2022-09-30T07:44:20.139Z,8.02
2022-09-30T07:45:21.825Z,9.45
2022-09-30T07:46:29.668Z,8.95
2022-09-30T07:47:31.200Z,9.55
2022-09-30T07:48:44.533Z,9.05
2022-09-30T07:49:46.638Z,9.27
2022-09-30T07:50:49.156Z,9.70
2022-09-30T07:51:52.383Z,10.15
2022-09-30T07:52:56.189Z,10.40
2022-09-30T07:54:00.356Z,9.40
2022-09-30T07:55:02.856Z,9.05
2022-09-30T07:56:05.550Z,9.85
2022-09-30T07:57:11.843Z,9.90
2022-09-30T07:58:13.709Z,9.20
2022-09-30T07:59:16.620Z,9.25
2022-09-30T08:00:40.666Z,9.60
2022-09-30T08:01:43.114Z,9.88
2022-09-30T08:02:45.648Z,9.90
2022-09-30T08:03:54.420Z,8.55
2022-09-30T08:04:57.140Z,9.40
2022-09-30T08:06:04.433Z,8.90
2022-09-30T08:07:07.149Z,10.18
2022-09-30T08:08:08.999Z,9.60
2022-09-30T08:09:12.275Z,10.00
2022-09-30T08:10:15.600Z,10.43
2022-09-30T08:11:17.481Z,10.50
2022-09-30T08:12:19.991Z,11.00
2022-09-30T08:13:21.588Z,10.18
2022-09-30T08:14:26.096Z,10.07
2022-09-30T08:15:27.732Z,9.88
2022-09-30T08:16:30.393Z,9.63
2022-09-30T08:17:34.277Z,9.43
2022-09-30T08:18:35.957Z,10.18
2022-09-30T08:19:41.271Z,8.68
2022-09-30T08:20:42.835Z,9.00
2022-09-30T08:21:46.219Z,9.20
2022-09-30T08:22:47.788Z,10.65
2022-09-30T08:23:50.841Z,8.50
2022-09-30T08:24:53.304Z,10.07
2022-09-30T08:26:00.988Z,10.25
2022-09-30T08:27:03.690Z,10.05
2022-09-30T08:28:05.271Z,10.55
2022-09-30T08:29:08.010Z,9.45
2022-09-30T08:30:12.654Z,9.30
2022-09-30T08:31:17.043Z,9.65
2022-09-30T08:32:19.548Z,9.18
2022-09-30T08:33:22.518Z,9.77
2022-09-30T08:34:25.307Z,9.75
2022-09-30T08:35:27.021Z,10.38
2022-09-30T08:36:30.475Z,10.05
2022-09-30T08:37:32.016Z,9.60
2022-09-30T08:38:35.318Z,10.20
2022-09-30T08:39:38.040Z,10.68
2022-09-30T08:40:58.633Z,9.77
2022-09-30T08:42:32.805Z,9.43
2022-09-30T08:43:51.176Z,10.80
2022-09-30T08:44:52.787Z,11.43
2022-09-30T08:46:05.469Z,10.90
2022-09-30T08:47:22.963Z,10.43
2022-09-30T08:48:49.920Z,11.75
2022-09-30T08:50:03.313Z,10.65
2022-09-30T08:51:20.665Z,12.25
2022-09-30T08:52:37.381Z,11.13
2022-09-30T08:53:49.023Z,11.82
2022-09-30T08:54:53.354Z,11.88
2022-09-30T08:55:57.918Z,11.38
2022-09-30T08:57:01.900Z,10.43
2022-09-30T08:58:05.881Z,11.18
2022-09-30T08:59:21.303Z,11.15
2022-09-30T09:00:24.208Z,11.55
2022-09-30T09:01:31.520Z,11.20
2022-09-30T09:02:37.110Z,10.85
2022-09-30T09:03:40.547Z,12.15
2022-09-30T09:04:43.482Z,11.75
2022-09-30T09:06:01.570Z,11.65
2022-09-30T09:07:11.510Z,12.60
2022-09-30T09:08:19.153Z,11.40
2022-09-30T09:09:44.302Z,9.70
2022-09-30T09:10:54.495Z,10.52
2022-09-30T09:12:11.374Z,10.10
2022-09-30T09:13:26.528Z,11.05
2022-09-30T09:14:40.207Z,11.10
2022-09-30T09:15:59.510Z,12.02
2022-09-30T09:17:14.603Z,12.40
2022-09-30T09:18:34.719Z,11.50
2022-09-30T09:19:47.410Z,10.77
2022-09-30T09:20:55.413Z,10.30
2022-09-30T09:22:02.738Z,11.52
2022-09-30T09:23:10.357Z,12.00
2022-09-30T09:24:16.956Z,12.82
2022-09-30T09:25:23.032Z,14.65
2022-09-30T09:26:27.723Z,13.00
2022-09-30T09:27:42.802Z,12.20
2022-09-30T09:28:56.406Z,12.75
2022-09-30T09:30:12.709Z,13.05
2022-09-30T09:31:17.271Z,12.70
2022-09-30T09:32:20.128Z,13.05
2022-09-30T09:33:26.129Z,13.48
2022-09-30T09:34:31.665Z,12.88
2022-09-30T09:35:47.090Z,12.75
2022-09-30T09:37:03.804Z,12.23
2022-09-30T09:38:29.828Z,12.60
2022-09-30T09:39:52.282Z,13.13
2022-09-30T09:41:08.429Z,12.65
2022-09-30T09:42:30.716Z,12.93
2022-09-30T09:43:49.013Z,12.05
2022-09-30T09:44:57.363Z,13.38
2022-09-30T09:46:05.265Z,14.07
2022-09-30T09:47:15.010Z,14.35
2022-09-30T09:48:17.336Z,14.20
2022-09-30T09:49:35.064Z,14.38
2022-09-30T09:50:46.660Z,13.60
2022-09-30T09:51:58.519Z,13.00
2022-09-30T09:53:22.243Z,14.60
2022-09-30T09:54:31.098Z,13.98
2022-09-30T09:55:37.703Z,13.80
2022-09-30T09:56:40.223Z,13.70
2022-09-30T09:57:41.787Z,15.48
2022-09-30T09:59:08.917Z,14.10
2022-09-30T10:00:31.816Z,13.68
2022-09-30T10:01:36.339Z,13.68
2022-09-30T10:02:39.717Z,13.35
2022-09-30T10:03:42.663Z,13.88
2022-09-30T10:04:50.911Z,13.90
2022-09-30T10:06:04.090Z,14.13
2022-09-30T10:07:15.087Z,15.70
2022-09-30T10:08:18.986Z,14.05
2022-09-30T10:09:27.272Z,13.80
2022-09-30T10:10:30.174Z,12.82
2022-09-30T10:11:31.740Z,14.52
2022-09-30T10:12:34.297Z,14.50
2022-09-30T10:13:42.889Z,14.63
2022-09-30T10:14:52.556Z,13.82
2022-09-30T10:15:57.936Z,13.60
2022-09-30T10:17:00.787Z,13.25
2022-09-30T10:18:03.309Z,13.95
2022-09-30T10:19:19.917Z,14.52
2022-09-30T10:20:29.137Z,13.20
2022-09-30T10:21:33.037Z,14.45
2022-09-30T10:22:36.438Z,14.52
2022-09-30T10:23:40.624Z,12.82
2022-09-30T10:24:42.321Z,13.85
2022-09-30T10:25:57.045Z,14.15
2022-09-30T10:26:59.566Z,14.45
2022-09-30T10:28:04.089Z,11.68
2022-09-30T10:29:27.285Z,13.13
2022-09-30T10:30:45.635Z,13.75
2022-09-30T10:31:50.562Z,14.57
2022-09-30T10:32:52.346Z,13.73
2022-09-30T10:34:01.212Z,14.07
2022-09-30T10:35:06.141Z,12.98
2022-09-30T10:36:12.981Z,12.85
2022-09-30T10:37:20.663Z,13.30
2022-09-30T10:38:26.396Z,12.80
2022-09-30T10:39:31.002Z,13.07
2022-09-30T10:40:40.029Z,12.55
2022-09-30T10:41:43.139Z,12.05
2022-09-30T10:42:48.352Z,12.98
2022-09-30T10:43:53.718Z,12.68
2022-09-30T10:44:57.413Z,14.13
2022-09-30T10:46:24.579Z,13.50
2022-09-30T10:47:31.356Z,12.57
2022-09-30T10:48:38.991Z,12.07
2022-09-30T10:49:49.053Z,12.15
2022-09-30T10:50:52.611Z,12.07
2022-09-30T10:51:56.199Z,11.40
2022-09-30T10:53:02.224Z,11.63
2022-09-30T10:54:07.119Z,10.18
2022-09-30T10:55:29.413Z,12.20
2022-09-30T10:56:39.249Z,11.25
2022-09-30T10:57:41.757Z,11.35
2022-09-30T10:58:48.671Z,11.60
2022-09-30T10:59:55.726Z,13.18
2022-09-30T11:01:02.239Z,12.15
2022-09-30T11:02:18.963Z,11.90
2022-09-30T11:03:25.397Z,12.05
2022-09-30T11:04:34.804Z,11.00
2022-09-30T11:05:40.052Z,12.02
2022-09-30T11:06:46.893Z,12.02
2022-09-30T11:07:55.810Z,12.15
2022-09-30T11:09:04.723Z,12.18
2022-09-30T11:10:15.377Z,11.27
2022-09-30T11:11:22.573Z,12.23
2022-09-30T11:12:33.572Z,12.18
2022-09-30T11:13:38.139Z,11.75
2022-09-30T11:14:45.252Z,12.95
2022-09-30T11:15:58.677Z,11.55
2022-09-30T11:17:08.638Z,12.13
2022-09-30T11:18:19.750Z,10.50
2022-09-30T11:19:26.868Z,10.95
2022-09-30T11:20:32.403Z,11.05
2022-09-30T11:21:37.563Z,11.10
2022-09-30T11:22:47.083Z,10.13
2022-09-30T11:23:55.985Z,9.82
2022-09-30T11:24:59.155Z,10.05
2022-09-30T11:26:08.005Z,10.90
2022-09-30T11:27:16.312Z,10.10
2022-09-30T11:28:36.910Z,10.55
2022-09-30T11:29:50.294Z,10.75
2022-09-30T11:31:06.775Z,10.10
2022-09-30T11:32:17.288Z,9.18
2022-09-30T11:33:36.071Z,9.88
2022-09-30T11:34:55.176Z,11.13
2022-09-30T11:36:06.813Z,9.73
2022-09-30T11:37:18.789Z,9.85
2022-09-30T11:38:48.455Z,8.35
2022-09-30T11:40:05.745Z,8.02
2022-09-30T11:41:12.230Z,7.78
2022-09-30T11:42:22.901Z,9.30
2022-09-30T11:43:34.993Z,7.57
2022-09-30T11:44:41.510Z,8.85
2022-09-30T11:46:01.162Z,8.38
2022-09-30T11:47:17.590Z,11.70
2022-09-30T11:48:35.358Z,8.48
2022-09-30T11:50:11.084Z,8.15
2022-09-30T11:51:20.585Z,8.85
2022-09-30T11:52:32.094Z,7.80
2022-09-30T11:53:44.078Z,8.25
2022-09-30T11:55:11.771Z,8.50
2022-09-30T11:56:32.705Z,9.30
2022-09-30T11:57:41.751Z,8.27
2022-09-30T11:58:50.426Z,7.70
2022-09-30T11:59:58.030Z,7.90
2022-09-30T12:01:12.300Z,7.55
2022-09-30T12:02:30.269Z,8.32
2022-09-30T12:03:38.213Z,7.13
2022-09-30T12:04:43.803Z,7.18
2022-09-30T12:05:48.481Z,6.80
2022-09-30T12:06:57.461Z,6.28
2022-09-30T12:08:05.648Z,6.85
2022-09-30T12:09:17.548Z,6.05
2022-09-30T12:10:25.690Z,7.53
2022-09-30T12:11:33.858Z,8.07
2022-09-30T12:12:37.236Z,6.53
2022-09-30T12:13:43.363Z,6.13
2022-09-30T12:14:49.393Z,6.70
2022-09-30T12:15:55.128Z,5.80
2022-09-30T12:17:00.756Z,5.47
2022-09-30T12:18:06.364Z,5.63
2022-09-30T12:19:15.684Z,5.28
2022-09-30T12:20:26.062Z,6.15
2022-09-30T12:21:33.008Z,5.55
2022-09-30T12:22:40.928Z,5.82
2022-09-30T12:23:46.331Z,5.30
2022-09-30T12:24:48.898Z,5.45
2022-09-30T12:25:55.820Z,5.30
2022-09-30T12:26:59.470Z,5.43
2022-09-30T12:28:28.113Z,6.43
2022-09-30T12:29:54.085Z,6.07
2022-09-30T12:31:04.828Z,5.18
2022-09-30T12:32:25.094Z,5.47
2022-09-30T12:33:40.992Z,5.68
2022-09-30T12:35:03.306Z,5.60
2022-09-30T12:36:23.344Z,5.07
2022-09-30T12:37:40.279Z,5.50
2022-09-30T12:39:18.451Z,6.10
2022-09-30T12:40:52.713Z,6.00
2022-09-30T12:42:13.454Z,5.30
2022-09-30T12:43:46.305Z,6.57
2022-09-30T12:45:19.771Z,6.53
2022-09-30T12:46:31.168Z,5.30
2022-09-30T12:47:45.619Z,5.70
2022-09-30T12:48:51.753Z,4.45
2022-09-30T12:49:58.971Z,4.72
2022-09-30T12:51:01.057Z,5.43
2022-09-30T12:52:07.504Z,5.85
2022-09-30T12:53:16.465Z,4.70
2022-09-30T12:54:24.972Z,5.82
2022-09-30T12:55:31.112Z,5.80
2022-09-30T12:56:34.898Z,5.25
2022-09-30T12:57:43.619Z,4.63
2022-09-30T12:58:49.737Z,5.28
2022-09-30T12:59:55.595Z,5.00
2022-09-30T13:01:01.443Z,4.55
2022-09-30T13:02:07.085Z,4.97
2022-09-30T13:03:15.625Z,5.50
2022-09-30T13:04:31.964Z,4.93
2022-09-30T13:05:51.793Z,4.93
2022-09-30T13:07:24.592Z,5.05
2022-09-30T13:08:47.930Z,5.85
2022-09-30T13:10:26.147Z,5.50
2022-09-30T13:11:37.148Z,4.70
2022-09-30T13:12:46.557Z,5.28
2022-09-30T13:14:02.312Z,6.03
2022-09-30T13:15:40.388Z,4.95
2022-09-30T13:17:23.475Z,5.35
2022-09-30T13:19:01.041Z,5.25
2022-09-30T13:20:03.904Z,4.93
2022-09-30T13:21:22.437Z,4.55
2022-09-30T13:22:58.182Z,5.20
2022-09-30T13:24:01.797Z,5.05
2022-09-30T13:25:10.808Z,4.80
2022-09-30T13:26:40.091Z,4.87
2022-09-30T13:27:44.964Z,5.85
2022-09-30T13:28:47.704Z,5.70
2022-09-30T13:29:50.277Z,5.40
2022-09-30T13:31:11.521Z,5.80
2022-09-30T13:32:32.779Z,5.40
2022-09-30T13:33:45.821Z,5.63
2022-09-30T13:34:56.084Z,5.60
2022-09-30T13:36:08.612Z,5.63
2022-09-30T13:37:35.733Z,5.53
2022-09-30T13:38:40.063Z,6.63
2022-09-30T13:39:48.688Z,5.97
2022-09-30T13:41:02.293Z,6.13
2022-09-30T13:42:18.661Z,5.40
2022-09-30T13:43:26.124Z,4.90
2022-09-30T13:44:37.153Z,4.75
2022-09-30T13:45:42.018Z,5.38
2022-09-30T13:46:49.858Z,5.63
2022-09-30T13:48:07.322Z,5.40
2022-09-30T13:49:17.747Z,5.32
2022-09-30T13:50:24.749Z,6.38
2022-09-30T13:51:30.480Z,6.80
2022-09-30T13:52:38.073Z,5.82
2022-09-30T13:53:45.384Z,5.53
2022-09-30T13:54:50.127Z,5.75
2022-09-30T13:55:53.825Z,6.25
2022-09-30T13:56:57.041Z,5.50
2022-09-30T13:58:08.529Z,5.75
2022-09-30T13:59:37.409Z,5.50
2022-09-30T14:00:57.770Z,5.88
2022-09-30T14:02:22.621Z,6.00
2022-09-30T14:03:46.437Z,6.32
2022-09-30T14:05:07.184Z,6.20
2022-09-30T14:06:22.982Z,6.35
2022-09-30T14:07:41.111Z,6.10
2022-09-30T14:09:20.439Z,5.65
2022-09-30T14:10:36.103Z,5.93
2022-09-30T14:12:03.008Z,6.43
2022-09-30T14:13:19.772Z,5.20
2022-09-30T14:14:43.266Z,6.10
2022-09-30T14:16:19.338Z,5.45
2022-09-30T14:17:36.795Z,5.47
2022-09-30T14:18:59.591Z,5.60
2022-09-30T14:20:20.887Z,5.43
2022-09-30T14:21:35.016Z,4.45
2022-09-30T14:22:38.245Z,4.93
2022-09-30T14:23:40.176Z,4.90
2022-09-30T14:24:43.177Z,5.10
2022-09-30T14:25:58.944Z,5.75
2022-09-30T14:27:15.757Z,5.10
2022-09-30T14:28:28.054Z,4.60
2022-09-30T14:29:39.202Z,4.28
2022-09-30T14:31:03.539Z,4.70
2022-09-30T14:32:11.734Z,4.63
2022-09-30T14:33:26.137Z,5.40
2022-09-30T14:34:29.432Z,4.65
2022-09-30T14:35:34.567Z,5.00
2022-09-30T14:36:36.361Z,4.20
2022-09-30T14:37:42.724Z,5.18
2022-09-30T14:38:47.909Z,5.95
2022-09-30T14:39:49.923Z,4.90
2022-09-30T14:40:56.811Z,5.90
2022-09-30T14:42:01.976Z,5.80
2022-09-30T14:43:08.123Z,4.78
2022-09-30T14:44:17.053Z,5.22
2022-09-30T14:45:26.878Z,5.60
2022-09-30T14:46:35.554Z,4.90
2022-09-30T14:47:41.536Z,4.82
2022-09-30T14:48:45.562Z,4.35
2022-09-30T14:49:48.288Z,5.43
2022-09-30T14:50:56.309Z,5.10
2022-09-30T14:52:00.349Z,5.07
2022-09-30T14:53:04.199Z,4.80
2022-09-30T14:54:17.508Z,4.55
2022-09-30T14:55:27.003Z,5.18
2022-09-30T14:56:36.156Z,5.10
2022-09-30T14:57:44.580Z,4.32